Time;durP1;ratioP1;P1;durP2;ratioP2;P2;SDS_P1;SDS_P2;PMS_P1;PMS_P2;Temp;Humidity;BMP_temperature;BMP_pressure;BME280_temperature;BME280_humidity;BME280_pressure;Samples;Min_cycle;Max_cycle;Signal;HPM_P1;HPM_P2
2021/09/18 00:01:20;;;;;;;;;;;19.70;89.80;;;;;;4288394;33;44130;-79
2021/09/18 00:03:47;;;;;;;;;;;19.70;89.70;;;;;;4276108;33;43238;-79
2021/09/18 00:06:17;;;;;;;;;;;19.70;89.80;;;;;;4287384;33;43454;-79
2021/09/18 00:08:44;;;;;;;;;;;19.70;89.70;;;;;;4288871;33;45004;-79
2021/09/18 00:11:11;;;;;;;;;;;19.70;89.70;;;;;;4288818;33;43476;-79
2021/09/18 00:13:38;;;;;;;;;;;19.60;89.70;;;;;;4287307;33;44113;-79
2021/09/18 00:16:05;;;;;;;;;;;19.60;89.70;;;;;;4275986;33;42794;-79
2021/09/18 00:18:33;;;;;;;;;;;19.60;89.70;;;;;;4288431;33;42776;-79
2021/09/18 00:21:05;;;;;;;;;;;19.60;89.70;;;;;;4287726;33;43227;-79
2021/09/18 00:23:32;;;;;;;;;;;19.60;89.70;;;;;;4288507;33;42757;-79
2021/09/18 00:25:59;;;;;;;;;;;19.50;89.60;;;;;;4288194;33;43388;-79
2021/09/18 00:28:26;;;;;;;;;;;19.50;89.60;;;;;;4288332;33;43773;-79
2021/09/18 00:30:53;;;;;;;;;;;19.50;89.60;;;;;;4288536;33;43938;-79
2021/09/18 00:33:21;;;;;;;;;;;19.50;89.60;;;;;;4287673;33;43889;-79
2021/09/18 00:35:50;;;;;;;;;;;19.50;89.70;;;;;;4288062;33;42742;-79
2021/09/18 00:38:19;;;;;;;;;;;19.40;89.70;;;;;;4275532;33;44103;-79
2021/09/18 00:40:47;;;;;;;;;;;19.40;89.70;;;;;;4287190;33;43871;-79
2021/09/18 00:43:14;;;;;;;;;;;19.40;89.60;;;;;;4287068;33;43915;-79
2021/09/18 00:45:43;;;;;;;;;;;19.40;89.70;;;;;;4286887;33;44735;-79
2021/09/18 00:48:10;;;;;;;;;;;19.40;89.80;;;;;;4286704;33;44295;-79
2021/09/18 00:50:37;;;;;;;;;;;19.40;89.80;;;;;;4287673;33;44153;-79
2021/09/18 00:53:04;;;;;;;;;;;19.40;89.70;;;;;;4286919;33;42539;-79
2021/09/18 00:55:32;;;;;;;;;;;19.40;89.70;;;;;;4287947;33;44752;-79
2021/09/18 00:58:00;;;;;;;;;;;19.30;89.70;;;;;;4274991;33;43186;-79
2021/09/18 01:00:32;;;;;;;;;;;19.30;89.90;;;;;;4288384;33;43903;-79
2021/09/18 01:03:00;;;;;;;;;;;19.30;90.00;;;;;;4287807;33;44224;-79
2021/09/18 01:05:30;;;;;;;;;;;19.30;90.00;;;;;;4287765;33;43011;-79
2021/09/18 01:07:59;;;;;;;;;;;19.30;90.00;;;;;;4288188;33;42955;-78
2021/09/18 01:10:27;;;;;;;;;;;19.30;90.00;;;;;;4274781;33;45821;-79
2021/09/18 01:12:58;;;;;;;;;;;19.20;89.90;;;;;;4287580;33;43774;-79
2021/09/18 01:15:28;;;;;;;;;;;19.30;90.00;;;;;;4288207;33;43137;-79
2021/09/18 01:17:56;;;;;;;;;;;19.30;89.90;;;;;;4274911;33;44649;-79
2021/09/18 01:20:24;;;;;;;;;;;19.20;89.80;;;;;;4287673;33;44208;-79
2021/09/18 01:22:52;;;;;;;;;;;19.20;89.80;;;;;;4274702;33;42724;-79
2021/09/18 01:25:19;;;;;;;;;;;19.20;89.70;;;;;;4287644;33;42796;-79
2021/09/18 01:27:46;;;;;;;;;;;19.20;89.80;;;;;;4287675;33;42192;-79
2021/09/18 01:30:28;;;;;;;;;;;19.10;89.80;;;;;;4286902;33;44938;-79
2021/09/18 01:32:56;;;;;;;;;;;19.10;89.90;;;;;;4286814;33;44015;-79
2021/09/18 01:35:26;;;;;;;;;;;19.10;90.00;;;;;;4287451;33;44164;-79
2021/09/18 01:37:53;;;;;;;;;;;19.10;90.00;;;;;;4288427;33;20409;-79
2021/09/18 01:40:22;;;;;;;;;;;19.10;90.00;;;;;;4286767;33;43486;-79
2021/09/18 01:42:49;;;;;;;;;;;19.10;90.00;;;;;;4286494;33;42985;-78
2021/09/18 01:45:20;;;;;;;;;;;19.10;90.00;;;;;;4287064;33;44825;-79
2021/09/18 01:47:51;;;;;;;;;;;19.10;90.00;;;;;;4274137;33;43478;-79
2021/09/18 01:50:27;;;;;;;;;;;19.10;90.00;;;;;;4287605;33;43217;-79
2021/09/18 01:52:57;;;;;;;;;;;19.00;90.00;;;;;;4274721;33;43528;-79
2021/09/18 01:55:24;;;;;;;;;;;19.00;90.00;;;;;;4287647;33;43493;-79
2021/09/18 01:57:56;;;;;;;;;;;19.00;90.00;;;;;;4274516;33;44250;-79
2021/09/18 02:00:23;;;;;;;;;;;19.00;90.00;;;;;;4274111;33;43191;-79
2021/09/18 02:02:53;;;;;;;;;;;19.00;90.10;;;;;;4285867;33;43250;-78
2021/09/18 02:05:23;;;;;;;;;;;19.00;90.10;;;;;;4286891;33;43021;-78
2021/09/18 02:07:53;;;;;;;;;;;19.00;90.10;;;;;;4274226;33;42940;-78
2021/09/18 02:10:24;;;;;;;;;;;18.90;90.10;;;;;;4287177;33;45009;-79
2021/09/18 02:12:52;;;;;;;;;;;18.90;90.10;;;;;;4274561;33;43510;-78
2021/09/18 02:15:20;;;;;;;;;;;19.00;90.10;;;;;;4274500;33;43517;-78
2021/09/18 02:17:47;;;;;;;;;;;18.90;90.10;;;;;;4274286;33;43597;-79
2021/09/18 02:20:16;;;;;;;;;;;18.90;90.10;;;;;;4273910;33;44899;-78
2021/09/18 02:22:43;;;;;;;;;;;18.90;90.10;;;;;;4287262;33;44223;-79
2021/09/18 02:25:11;;;;;;;;;;;18.90;90.10;;;;;;4273812;33;44385;-79
2021/09/18 02:27:38;;;;;;;;;;;18.90;90.20;;;;;;4286808;33;43005;-79
2021/09/18 02:30:06;;;;;;;;;;;18.90;90.20;;;;;;4285851;33;43482;-79
2021/09/18 02:32:35;;;;;;;;;;;18.90;90.20;;;;;;4287142;33;43908;-79
2021/09/18 02:35:07;;;;;;;;;;;18.90;90.20;;;;;;4286636;33;42804;-79
2021/09/18 02:37:34;;;;;;;;;;;18.90;90.20;;;;;;4273725;33;44216;-79
2021/09/18 02:40:03;;;;;;;;;;;18.90;90.20;;;;;;4287236;33;42986;-79
2021/09/18 02:42:30;;;;;;;;;;;18.90;90.20;;;;;;4286634;33;43436;-79
2021/09/18 02:44:57;;;;;;;;;;;18.90;90.20;;;;;;4286900;33;43924;-79
2021/09/18 02:47:26;;;;;;;;;;;18.90;90.10;;;;;;4286816;33;42948;-79
2021/09/18 02:49:56;;;;;;;;;;;18.90;90.20;;;;;;4273906;33;45139;-79
2021/09/18 02:52:23;;;;;;;;;;;18.80;90.10;;;;;;4286540;33;44725;-79
2021/09/18 02:54:50;;;;;;;;;;;18.80;90.10;;;;;;4286565;33;43907;-79
2021/09/18 02:57:17;;;;;;;;;;;18.80;90.10;;;;;;4286655;33;44116;-79
2021/09/18 02:59:44;;;;;;;;;;;18.80;90.00;;;;;;4286424;33;43618;-79
2021/09/18 03:02:17;;;;;;;;;;;18.70;90.00;;;;;;4285232;33;43184;-79
2021/09/18 03:04:46;;;;;;;;;;;18.80;90.00;;;;;;4286823;33;43995;-79
2021/09/18 03:07:13;;;;;;;;;;;18.70;90.00;;;;;;4273417;33;44053;-79
2021/09/18 03:09:41;;;;;;;;;;;18.70;90.00;;;;;;4286991;33;44149;-78
2021/09/18 03:12:08;;;;;;;;;;;18.70;90.00;;;;;;4287697;33;43512;-79
2021/09/18 03:14:35;;;;;;;;;;;18.70;90.00;;;;;;4288688;33;44224;-79
2021/09/18 03:17:02;;;;;;;;;;;18.70;90.00;;;;;;4289632;33;43834;-79
2021/09/18 03:19:29;;;;;;;;;;;18.60;90.00;;;;;;4289286;33;43224;-79
2021/09/18 03:21:57;;;;;;;;;;;18.60;90.30;;;;;;4289504;33;43967;-79
2021/09/18 03:24:24;;;;;;;;;;;18.60;90.00;;;;;;4289602;33;43474;-79
2021/09/18 03:26:51;;;;;;;;;;;18.60;90.00;;;;;;4288266;33;42562;-78
2021/09/18 03:29:18;;;;;;;;;;;18.60;90.10;;;;;;4288020;33;43082;-79
2021/09/18 03:31:45;;;;;;;;;;;18.60;90.00;;;;;;4288028;33;43051;-79
2021/09/18 03:34:12;;;;;;;;;;;18.60;90.00;;;;;;4289012;33;42676;-79
2021/09/18 03:36:42;;;;;;;;;;;18.60;90.00;;;;;;4276041;33;43152;-79
2021/09/18 03:39:09;;;;;;;;;;;18.50;90.00;;;;;;4275992;33;42769;-79
2021/09/18 03:41:39;;;;;;;;;;;18.50;90.00;;;;;;4276392;33;45010;-79
2021/09/18 03:44:06;;;;;;;;;;;18.50;90.00;;;;;;4288814;33;43902;-79
2021/09/18 03:46:33;;;;;;;;;;;18.50;90.00;;;;;;4289152;33;45695;-79
2021/09/18 03:49:00;;;;;;;;;;;18.50;90.00;;;;;;4288333;33;43267;-78
2021/09/18 03:51:27;;;;;;;;;;;18.50;90.00;;;;;;4289077;33;44202;-78
2021/09/18 03:53:57;;;;;;;;;;;18.50;90.00;;;;;;4289045;33;42895;-79
2021/09/18 03:56:26;;;;;;;;;;;18.50;90.00;;;;;;4276217;33;42063;-79
2021/09/18 03:58:54;;;;;;;;;;;18.50;89.90;;;;;;4289042;33;43164;-79
2021/09/18 04:01:21;;;;;;;;;;;18.40;89.90;;;;;;4288658;33;43760;-79
2021/09/18 04:03:51;;;;;;;;;;;18.40;89.90;;;;;;4275671;33;43570;-79
2021/09/18 04:06:18;;;;;;;;;;;18.40;89.80;;;;;;4289060;33;43485;-79
2021/09/18 04:08:45;;;;;;;;;;;18.40;89.80;;;;;;4275555;33;44273;-79
2021/09/18 04:11:12;;;;;;;;;;;18.40;89.80;;;;;;4288560;33;42837;-79
2021/09/18 04:13:39;;;;;;;;;;;18.30;89.70;;;;;;4288421;33;43751;-79
2021/09/18 04:16:11;;;;;;;;;;;18.30;89.70;;;;;;4288513;33;43050;-79
2021/09/18 04:18:39;;;;;;;;;;;18.30;90.00;;;;;;4288067;33;43867;-79
2021/09/18 04:21:06;;;;;;;;;;;18.30;89.60;;;;;;4288672;33;44187;-79
2021/09/18 04:23:35;;;;;;;;;;;18.20;89.50;;;;;;4287694;33;45067;-79
2021/09/18 04:26:02;;;;;;;;;;;18.20;89.50;;;;;;4288739;33;44117;-79
2021/09/18 04:28:30;;;;;;;;;;;18.20;89.60;;;;;;4288329;33;42496;-79
2021/09/18 04:30:58;;;;;;;;;;;18.20;89.70;;;;;;4275309;33;43135;-79
2021/09/18 04:33:25;;;;;;;;;;;18.20;89.70;;;;;;4288384;33;42949;-79
2021/09/18 04:35:52;;;;;;;;;;;18.20;89.70;;;;;;4288238;33;44056;-78
2021/09/18 04:38:22;;;;;;;;;;;18.10;89.60;;;;;;4288505;33;43734;-79
2021/09/18 04:40:49;;;;;;;;;;;18.10;89.70;;;;;;4275461;33;44456;-79
2021/09/18 04:43:16;;;;;;;;;;;18.10;89.80;;;;;;4288261;33;44293;-79
2021/09/18 04:45:46;;;;;;;;;;;18.10;89.80;;;;;;4275604;33;44320;-79
2021/09/18 04:48:13;;;;;;;;;;;18.10;89.80;;;;;;4274990;33;43794;-79
2021/09/18 04:50:40;;;;;;;;;;;18.10;89.80;;;;;;4286854;33;43379;-79
2021/09/18 04:53:12;;;;;;;;;;;18.10;89.80;;;;;;4288396;33;42929;-79
2021/09/18 04:55:39;;;;;;;;;;;18.00;89.70;;;;;;4275041;33;42210;-79
2021/09/18 04:58:09;;;;;;;;;;;18.00;89.90;;;;;;4275109;33;42420;-79
2021/09/18 05:00:37;;;;;;;;;;;18.00;90.00;;;;;;4287802;33;42698;-79
2021/09/18 05:03:06;;;;;;;;;;;18.00;90.00;;;;;;4274948;33;43214;-79
2021/09/18 05:05:34;;;;;;;;;;;18.00;90.00;;;;;;4288066;33;42640;-79
2021/09/18 05:08:01;;;;;;;;;;;18.00;90.00;;;;;;4288038;33;44348;-80
2021/09/18 05:10:28;;;;;;;;;;;18.00;90.00;;;;;;4288228;33;43492;-79
2021/09/18 05:12:55;;;;;;;;;;;18.00;90.00;;;;;;4286733;33;43567;-79
2021/09/18 05:15:22;;;;;;;;;;;17.90;90.00;;;;;;4287622;33;42395;-79
2021/09/18 05:17:52;;;;;;;;;;;17.90;90.00;;;;;;4287550;33;42317;-79
2021/09/18 05:20:19;;;;;;;;;;;17.90;90.00;;;;;;4274927;33;42907;-79
2021/09/18 05:22:46;;;;;;;;;;;17.90;90.10;;;;;;4287495;33;44229;-79
2021/09/18 05:25:15;;;;;;;;;;;17.90;90.10;;;;;;4287561;33;42713;-79
2021/09/18 05:27:42;;;;;;;;;;;17.90;90.20;;;;;;4287595;33;44328;-80
2021/09/18 05:30:10;;;;;;;;;;;17.90;90.10;;;;;;4286483;33;43258;-80
2021/09/18 05:32:37;;;;;;;;;;;17.90;90.20;;;;;;4274840;33;43581;-79
2021/09/18 05:35:05;;;;;;;;;;;17.90;90.30;;;;;;4274454;33;43920;-79
2021/09/18 05:37:35;;;;;;;;;;;17.90;90.30;;;;;;4286112;33;44065;-79
2021/09/18 05:40:07;;;;;;;;;;;17.90;90.30;;;;;;4274349;33;43909;-79
2021/09/18 05:42:36;;;;;;;;;;;17.90;90.20;;;;;;4287391;33;44046;-79
2021/09/18 05:45:06;;;;;;;;;;;17.90;90.20;;;;;;4287490;33;44075;-79
2021/09/18 05:47:33;;;;;;;;;;;17.90;90.20;;;;;;4287503;33;44151;-79
2021/09/18 05:50:00;;;;;;;;;;;17.90;90.20;;;;;;4287431;33;45575;-79
2021/09/18 05:52:27;;;;;;;;;;;17.80;90.20;;;;;;4287081;33;42862;-79
2021/09/18 05:54:55;;;;;;;;;;;17.80;90.20;;;;;;4287275;33;42981;-79
2021/09/18 05:57:25;;;;;;;;;;;17.90;90.20;;;;;;4274738;33;43070;-79
2021/09/18 05:59:52;;;;;;;;;;;17.80;90.20;;;;;;4287084;33;44282;-79
2021/09/18 06:02:19;;;;;;;;;;;17.80;90.30;;;;;;4286997;33;45570;-79
2021/09/18 06:04:46;;;;;;;;;;;17.80;90.40;;;;;;4287059;33;43023;-79
2021/09/18 06:07:19;;;;;;;;;;;17.80;90.40;;;;;;4286069;33;42628;-79
2021/09/18 06:09:46;;;;;;;;;;;17.80;90.40;;;;;;4286389;33;43185;-79
2021/09/18 06:12:13;;;;;;;;;;;17.80;90.40;;;;;;4274460;33;43932;-79
2021/09/18 06:14:41;;;;;;;;;;;17.80;90.50;;;;;;4274418;33;44013;-79
2021/09/18 06:17:08;;;;;;;;;;;17.80;90.50;;;;;;4287320;33;43888;-79
2021/09/18 06:19:40;;;;;;;;;;;17.80;90.50;;;;;;4273945;33;43518;-79
2021/09/18 06:22:12;;;;;;;;;;;17.80;90.50;;;;;;4286258;33;43522;-79
2021/09/18 06:24:40;;;;;;;;;;;17.80;90.50;;;;;;4273979;33;44206;-79
2021/09/18 06:27:10;;;;;;;;;;;17.80;90.50;;;;;;4286703;33;42926;-80
2021/09/18 06:29:37;;;;;;;;;;;17.80;90.50;;;;;;4273695;33;43249;-79
2021/09/18 06:32:08;;;;;;;;;;;17.80;90.50;;;;;;4286631;33;43137;-79
2021/09/18 06:34:36;;;;;;;;;;;17.80;90.60;;;;;;4274568;33;43327;-80
2021/09/18 06:37:03;;;;;;;;;;;17.80;90.60;;;;;;4286054;33;43949;-80
2021/09/18 06:39:33;;;;;;;;;;;17.70;90.60;;;;;;4285532;33;43470;-80
2021/09/18 06:42:01;;;;;;;;;;;17.70;90.60;;;;;;4286933;33;44100;-80
2021/09/18 06:44:28;;;;;;;;;;;17.70;90.60;;;;;;4286557;33;42637;-79
2021/09/18 06:46:55;;;;;;;;;;;17.80;90.60;;;;;;4285793;33;43579;-79
2021/09/18 06:49:25;;;;;;;;;;;17.70;90.60;;;;;;4285434;33;43030;-79
2021/09/18 06:51:55;;;;;;;;;;;17.70;90.60;;;;;;4285927;33;43183;-79
2021/09/18 06:54:22;;;;;;;;;;;17.70;90.70;;;;;;4273905;33;42902;-79
2021/09/18 06:56:50;;;;;;;;;;;17.70;90.70;;;;;;4285821;33;43565;-79
2021/09/18 06:59:20;;;;;;;;;;;17.70;90.70;;;;;;4287020;33;43902;-79
2021/09/18 07:01:50;;;;;;;;;;;17.70;90.80;;;;;;4273599;33;42799;-79
2021/09/18 07:04:17;;;;;;;;;;;17.70;90.80;;;;;;4285796;33;45375;-79
2021/09/18 07:06:47;;;;;;;;;;;17.70;90.80;;;;;;4274153;33;44094;-79
2021/09/18 07:09:17;;;;;;;;;;;17.70;90.80;;;;;;4286300;33;43047;-79
2021/09/18 07:11:47;;;;;;;;;;;17.70;90.90;;;;;;4285410;33;43178;-79
2021/09/18 07:14:14;;;;;;;;;;;17.70;90.90;;;;;;4286906;33;43931;-79
2021/09/18 07:16:41;;;;;;;;;;;17.70;90.90;;;;;;4286374;33;44166;-79
2021/09/18 07:19:08;;;;;;;;;;;17.70;90.90;;;;;;4286710;33;43869;-79
2021/09/18 07:21:35;;;;;;;;;;;17.70;91.00;;;;;;4286735;33;42773;-79
2021/09/18 07:24:03;;;;;;;;;;;17.70;91.00;;;;;;4286367;33;44318;-79
2021/09/18 07:26:30;;;;;;;;;;;17.70;91.00;;;;;;4286394;33;43923;-79
2021/09/18 07:28:57;;;;;;;;;;;17.70;91.10;;;;;;4273332;33;42628;-79
2021/09/18 07:31:24;;;;;;;;;;;17.70;91.10;;;;;;4273298;33;45830;-79
2021/09/18 07:33:51;;;;;;;;;;;17.70;91.10;;;;;;4286850;33;44104;-79
2021/09/18 07:36:19;;;;;;;;;;;17.70;91.20;;;;;;4273394;33;44792;-79
2021/09/18 07:38:46;;;;;;;;;;;17.70;91.20;;;;;;4286189;33;42827;-79
2021/09/18 07:41:13;;;;;;;;;;;17.70;91.20;;;;;;4286664;33;43320;-79
2021/09/18 07:43:41;;;;;;;;;;;17.70;91.30;;;;;;4286118;33;45147;-79
2021/09/18 07:46:08;;;;;;;;;;;17.70;91.30;;;;;;4285684;33;44196;-79
2021/09/18 07:48:35;;;;;;;;;;;17.70;91.30;;;;;;4286055;33;44616;-79
2021/09/18 07:51:03;;;;;;;;;;;17.70;91.40;;;;;;4286574;33;42233;-79
2021/09/18 07:53:30;;;;;;;;;;;17.70;91.40;;;;;;4286478;33;44028;-79
2021/09/18 07:55:57;;;;;;;;;;;17.70;91.40;;;;;;4286265;33;43213;-79
2021/09/18 07:58:24;;;;;;;;;;;17.70;91.40;;;;;;4286409;33;42558;-79
2021/09/18 08:00:51;;;;;;;;;;;17.70;91.50;;;;;;4288700;33;43842;-79
2021/09/18 08:03:19;;;;;;;;;;;17.80;91.50;;;;;;4275609;33;43271;-79
2021/09/18 08:05:47;;;;;;;;;;;17.70;91.50;;;;;;4289175;33;44167;-79
2021/09/18 08:08:16;;;;;;;;;;;17.80;91.50;;;;;;4288534;33;43895;-79
2021/09/18 08:10:43;;;;;;;;;;;17.80;91.60;;;;;;4275700;33;43758;-79
2021/09/18 08:13:13;;;;;;;;;;;17.80;91.60;;;;;;4288443;33;44423;-79
2021/09/18 08:15:40;;;;;;;;;;;17.80;91.60;;;;;;4287353;33;44246;-79
2021/09/18 08:18:07;;;;;;;;;;;17.80;91.60;;;;;;4287357;33;43225;-80
2021/09/18 08:20:35;;;;;;;;;;;17.80;91.60;;;;;;4288377;33;44295;-80
2021/09/18 08:23:02;;;;;;;;;;;17.80;91.70;;;;;;4275578;33;44131;-80
2021/09/18 08:25:29;;;;;;;;;;;17.80;92.00;;;;;;4288872;33;44257;-79
2021/09/18 08:27:57;;;;;;;;;;;17.80;91.70;;;;;;4288258;33;43767;-79
2021/09/18 08:30:26;;;;;;;;;;;17.80;91.70;;;;;;4288195;33;42587;-79
2021/09/18 08:32:53;;;;;;;;;;;17.80;91.60;;;;;;4288193;33;43934;-79
2021/09/18 08:35:20;;;;;;;;;;;17.80;91.60;;;;;;4275718;33;43890;-79
2021/09/18 08:37:47;;;;;;;;;;;17.90;91.70;;;;;;4287091;33;43047;-79
2021/09/18 08:40:15;;;;;;;;;;;17.90;91.70;;;;;;4275688;33;43190;-80
2021/09/18 08:42:42;;;;;;;;;;;17.90;91.70;;;;;;4288540;33;43937;-79
2021/09/18 08:45:12;;;;;;;;;;;17.90;91.70;;;;;;4287524;33;43825;-79
2021/09/18 08:47:41;;;;;;;;;;;17.90;92.10;;;;;;4288119;33;43243;-79
2021/09/18 08:50:12;;;;;;;;;;;17.90;91.70;;;;;;4286833;33;43943;-80
2021/09/18 08:52:40;;;;;;;;;;;17.90;91.70;;;;;;4287144;33;42962;-79
2021/09/18 08:55:07;;;;;;;;;;;17.90;91.80;;;;;;4275344;33;43748;-79
2021/09/18 08:57:35;;;;;;;;;;;17.90;91.80;;;;;;4287941;33;42218;-80
2021/09/18 09:00:04;;;;;;;;;;;18.00;91.80;;;;;;4287779;33;43845;-79
2021/09/18 09:02:33;;;;;;;;;;;18.00;91.80;;;;;;4287893;33;45409;-79
2021/09/18 09:05:05;;;;;;;;;;;18.00;91.80;;;;;;4287776;33;42852;-79
2021/09/18 09:07:32;;;;;;;;;;;18.00;91.90;;;;;;4288235;33;43546;-80
2021/09/18 09:10:04;;;;;;;;;;;18.00;91.90;;;;;;4288013;33;43918;-80
2021/09/18 09:12:35;;;;;;;;;;;18.00;91.90;;;;;;4288249;33;44218;-80
2021/09/18 09:15:05;;;;;;;;;;;18.00;91.90;;;;;;4287713;33;42095;-79
2021/09/18 09:17:33;;;;;;;;;;;18.10;92.00;;;;;;4287652;33;43290;-80
2021/09/18 09:20:00;;;;;;;;;;;18.00;91.90;;;;;;4287495;33;43532;-80
2021/09/18 09:22:36;;;;;;;;;;;18.10;92.00;;;;;;4274518;33;43927;-79
2021/09/18 09:25:05;;;;;;;;;;;18.10;92.00;;;;;;4287868;33;43534;-79
2021/09/18 09:27:32;;;;;;;;;;;18.10;92.00;;;;;;4287515;33;42894;-79
2021/09/18 09:30:01;;;;;;;;;;;18.10;92.00;;;;;;4287889;33;43477;-80
2021/09/18 09:32:33;;;;;;;;;;;18.10;92.00;;;;;;4287689;33;43302;-79
2021/09/18 09:35:02;;;;;;;;;;;18.10;92.00;;;;;;4287885;33;44570;-79
2021/09/18 09:37:29;;;;;;;;;;;18.20;92.10;;;;;;4274339;33;43930;-79
2021/09/18 09:39:59;;;;;;;;;;;18.10;92.10;;;;;;4286181;33;42622;-79
2021/09/18 09:42:28;;;;;;;;;;;18.10;92.10;;;;;;4288274;33;20011;-79
2021/09/18 09:45:08;;;;;;;;;;;18.20;92.10;;;;;;4287127;33;45354;-78
2021/09/18 09:47:35;;;;;;;;;;;18.20;92.10;;;;;;4274766;33;43248;-79
2021/09/18 09:50:06;;;;;;;;;;;18.20;92.10;;;;;;4286500;33;44184;-79
2021/09/18 09:52:36;;;;;;;;;;;18.20;92.10;;;;;;4274633;33;43867;-79
2021/09/18 09:55:11;;;;;;;;;;;18.20;92.10;;;;;;4287423;33;43418;-79
2021/09/18 09:57:39;;;;;;;;;;;18.20;92.10;;;;;;4287600;33;43267;-79
2021/09/18 10:00:10;;;;;;;;;;;18.30;92.20;;;;;;4274404;33;44386;-79
2021/09/18 10:02:39;;;;;;;;;;;18.30;92.20;;;;;;4274282;33;44213;-79
2021/09/18 10:05:07;;;;;;;;;;;18.30;92.20;;;;;;4274069;33;42219;-79
2021/09/18 10:07:37;;;;;;;;;;;18.30;92.20;;;;;;4287347;33;44563;-79
2021/09/18 10:10:07;;;;;;;;;;;18.40;92.20;;;;;;4273989;33;43591;-78
2021/09/18 10:12:35;;;;;;;;;;;18.40;92.20;;;;;;4286852;33;20003;-79
2021/09/18 10:15:06;;;;;;;;;;;18.30;92.20;;;;;;4286466;33;43301;-79
2021/09/18 10:17:35;;;;;;;;;;;18.30;92.20;;;;;;4286885;33;43578;-79
2021/09/18 10:20:09;;;;;;;;;;;18.40;92.20;;;;;;4287062;33;43896;-79
2021/09/18 10:25:25;;;;;;;;;;;18.40;92.20;;;;;;4287106;33;44030;-78
2021/09/18 10:28:12;;;;;;;;;;;18.50;92.20;;;;;;4287061;33;44175;-78
2021/09/18 10:30:41;;;;;;;;;;;18.40;92.20;;;;;;4285553;33;44198;-79
2021/09/18 10:33:40;;;;;;;;;;;18.40;92.10;;;;;;4286635;33;43773;-79
2021/09/18 10:36:15;;;;;;;;;;;18.50;92.20;;;;;;4257850;33;42996;-79
2021/09/18 10:38:43;;;;;;;;;;;18.50;92.20;;;;;;4287153;33;44861;-78
2021/09/18 10:41:19;;;;;;;;;;;18.50;92.20;;;;;;4286781;33;43579;-78
2021/09/18 10:43:53;;;;;;;;;;;18.50;92.20;;;;;;4287081;33;43538;-78
2021/09/18 10:46:40;;;;;;;;;;;18.60;92.20;;;;;;4287133;33;44115;-79
2021/09/18 10:49:26;;;;;;;;;;;18.60;92.20;;;;;;4287241;33;43892;-78
2021/09/18 10:51:54;;;;;;;;;;;18.60;92.50;;;;;;4273523;33;42930;-79
2021/09/18 10:54:21;;;;;;;;;;;18.60;92.10;;;;;;4287197;33;43019;-78
2021/09/18 10:56:54;;;;;;;;;;;18.60;92.10;;;;;;4286496;33;43872;-79
2021/09/18 10:59:44;;;;;;;;;;;18.60;92.10;;;;;;4286384;33;44653;-79
2021/09/18 11:02:29;;;;;;;;;;;18.70;92.20;;;;;;4273400;33;44265;-78
2021/09/18 11:04:57;;;;;;;;;;;18.70;92.10;;;;;;4286695;33;43436;-78
2021/09/18 11:07:39;;;;;;;;;;;18.70;92.10;;;;;;4286827;33;43290;-79
2021/09/18 11:10:08;;;;;;;;;;;18.70;92.10;;;;;;4286847;33;43860;-78
2021/09/18 11:12:35;;;;;;;;;;;18.80;92.20;;;;;;4287170;33;35260;-79
2021/09/18 11:15:05;;;;;;;;;;;18.80;92.20;;;;;;4286582;33;45223;-79
2021/09/18 11:17:33;;;;;;;;;;;18.80;92.10;;;;;;4286504;33;45119;-79
2021/09/18 11:20:30;;;;;;;;;;;18.90;92.20;;;;;;4273855;33;43529;-79
2021/09/18 11:22:57;;;;;;;;;;;18.80;92.10;;;;;;4267762;33;43922;-79
2021/09/18 11:25:25;;;;;;;;;;;18.90;92.50;;;;;;4287007;33;44466;-79
2021/09/18 11:28:03;;;;;;;;;;;18.90;92.20;;;;;;4286657;33;43406;-79
2021/09/18 11:30:39;;;;;;;;;;;18.90;92.20;;;;;;4286088;33;43999;-79
2021/09/18 11:33:06;;;;;;;;;;;19.00;92.20;;;;;;4274253;33;44223;-79
2021/09/18 11:35:34;;;;;;;;;;;19.00;92.10;;;;;;4276266;33;44204;-79
2021/09/18 11:38:04;;;;;;;;;;;19.00;92.10;;;;;;4288946;33;43473;-79
2021/09/18 11:40:36;;;;;;;;;;;19.00;92.10;;;;;;4276958;33;43415;-79
2021/09/18 11:43:03;;;;;;;;;;;19.10;92.20;;;;;;4288829;33;43198;-78
2021/09/18 11:45:38;;;;;;;;;;;19.10;92.20;;;;;;4289083;33;43896;-79
2021/09/18 11:48:07;;;;;;;;;;;19.10;92.10;;;;;;4289500;33;43035;-79
2021/09/18 11:50:36;;;;;;;;;;;19.20;92.20;;;;;;4276423;33;43387;-78
2021/09/18 11:53:10;;;;;;;;;;;19.20;92.10;;;;;;4289283;33;43474;-78
2021/09/18 11:55:48;;;;;;;;;;;19.20;92.20;;;;;;4288669;33;42860;-79
2021/09/18 11:58:21;;;;;;;;;;;19.20;92.10;;;;;;4288884;33;42870;-78
2021/09/18 12:00:52;;;;;;;;;;;19.30;92.10;;;;;;4288908;33;44187;-78
2021/09/18 12:03:27;;;;;;;;;;;19.30;92.10;;;;;;4276151;33;42927;-78
2021/09/18 12:05:55;;;;;;;;;;;19.30;92.10;;;;;;4289227;33;43217;-78
2021/09/18 12:08:23;;;;;;;;;;;19.40;92.10;;;;;;4287954;33;43903;-78
2021/09/18 12:10:51;;;;;;;;;;;19.40;92.10;;;;;;4288938;33;44179;-78
2021/09/18 12:13:20;;;;;;;;;;;19.40;92.10;;;;;;4288522;33;43273;-78
2021/09/18 12:15:47;;;;;;;;;;;19.50;92.10;;;;;;4288799;33;43040;-78
2021/09/18 12:18:20;;;;;;;;;;;19.50;92.10;;;;;;4276000;33;43860;-78
2021/09/18 12:20:52;;;;;;;;;;;19.60;92.10;;;;;;4288417;33;42644;-78
2021/09/18 12:23:19;;;;;;;;;;;19.60;92.10;;;;;;4275447;33;44204;-78
2021/09/18 12:25:53;;;;;;;;;;;19.60;92.10;;;;;;4288845;33;44243;-78
2021/09/18 12:28:20;;;;;;;;;;;19.60;92.10;;;;;;4275780;33;43478;-78
2021/09/18 12:30:47;;;;;;;;;;;19.70;92.10;;;;;;4275755;33;43484;-78
2021/09/18 12:33:29;;;;;;;;;;;19.70;92.10;;;;;;4275550;33;42962;-78
2021/09/18 12:36:02;;;;;;;;;;;19.80;92.10;;;;;;4275967;33;43875;-78
2021/09/18 12:38:29;;;;;;;;;;;19.80;92.10;;;;;;4288911;33;43195;-78
2021/09/18 12:41:03;;;;;;;;;;;19.80;92.10;;;;;;4275579;33;42818;-78
2021/09/18 12:43:30;;;;;;;;;;;19.80;92.00;;;;;;4288788;33;43855;-78
2021/09/18 12:46:08;;;;;;;;;;;19.90;92.10;;;;;;4274689;33;43185;-78
2021/09/18 12:48:36;;;;;;;;;;;19.90;92.00;;;;;;4288041;33;44305;-78
2021/09/18 12:51:11;;;;;;;;;;;19.90;92.00;;;;;;4275186;33;43865;-78
2021/09/18 12:53:43;;;;;;;;;;;19.90;92.00;;;;;;4275618;33;43255;-77
2021/09/18 12:56:30;;;;;;;;;;;20.00;92.00;;;;;;4288278;33;44491;-77
2021/09/18 12:59:01;;;;;;;;;;;20.00;92.00;;;;;;4275550;33;43465;-77
2021/09/18 13:01:35;;;;;;;;;;;20.10;92.00;;;;;;4274987;33;44973;-78
2021/09/18 13:04:08;;;;;;;;;;;20.10;92.00;;;;;;4288174;33;44240;-78
2021/09/18 13:06:37;;;;;;;;;;;20.10;92.00;;;;;;4275208;33;43948;-78
2021/09/18 13:09:05;;;;;;;;;;;20.20;92.00;;;;;;4288495;33;44206;-78
2021/09/18 13:11:53;;;;;;;;;;;20.20;92.00;;;;;;4286628;33;44211;-78
2021/09/18 13:14:21;;;;;;;;;;;20.20;92.00;;;;;;4275106;33;43106;-78
2021/09/18 13:16:56;;;;;;;;;;;20.20;92.00;;;;;;4275878;33;20025;-78
2021/09/18 13:19:26;;;;;;;;;;;20.30;92.00;;;;;;4275106;33;45412;-78
2021/09/18 13:21:53;;;;;;;;;;;20.30;91.90;;;;;;4287738;33;43864;-77
2021/09/18 13:24:20;;;;;;;;;;;20.40;91.90;;;;;;4287485;33;42900;-78
2021/09/18 13:26:48;;;;;;;;;;;20.40;91.90;;;;;;4287444;33;43471;-78
2021/09/18 13:29:20;;;;;;;;;;;20.50;91.80;;;;;;4274953;33;45391;-78
2021/09/18 13:31:47;;;;;;;;;;;20.50;92.10;;;;;;4274841;33;42963;-78
2021/09/18 13:34:17;;;;;;;;;;;20.50;91.70;;;;;;4274624;33;42663;-78
2021/09/18 13:36:49;;;;;;;;;;;20.50;91.70;;;;;;4287309;33;44220;-78
2021/09/18 13:39:17;;;;;;;;;;;20.60;91.70;;;;;;4287376;33;43486;-78
2021/09/18 13:41:44;;;;;;;;;;;20.60;91.60;;;;;;4287621;33;42616;-78
2021/09/18 13:44:11;;;;;;;;;;;20.70;91.50;;;;;;4287270;33;43239;-78
2021/09/18 13:46:38;;;;;;;;;;;20.70;91.40;;;;;;4287692;33;43196;-78
2021/09/18 13:49:05;;;;;;;;;;;20.70;91.40;;;;;;4274879;33;43919;-77
2021/09/18 13:51:33;;;;;;;;;;;20.80;91.30;;;;;;4287092;33;43910;-78
2021/09/18 13:54:00;;;;;;;;;;;20.70;91.20;;;;;;4287243;33;42752;-77
2021/09/18 13:56:27;;;;;;;;;;;20.80;91.20;;;;;;4285472;33;42873;-78
2021/09/18 13:58:56;;;;;;;;;;;20.80;91.10;;;;;;4287031;33;44051;-77
2021/09/18 14:01:23;;;;;;;;;;;20.80;91.00;;;;;;4287005;33;44484;-78
2021/09/18 14:03:52;;;;;;;;;;;20.80;90.90;;;;;;4271528;33;44347;-77
2021/09/18 14:06:19;;;;;;;;;;;20.90;90.80;;;;;;4273077;33;43870;-77
2021/09/18 14:08:47;;;;;;;;;;;20.90;90.70;;;;;;4272605;33;43006;-78
2021/09/18 14:11:14;;;;;;;;;;;20.90;90.70;;;;;;4271382;33;43730;-77
2021/09/18 14:13:41;;;;;;;;;;;21.00;90.70;;;;;;4272852;33;43350;-77
2021/09/18 14:16:08;;;;;;;;;;;21.00;90.60;;;;;;4273101;33;43542;-78
2021/09/18 14:18:35;;;;;;;;;;;21.00;90.50;;;;;;4272458;33;44294;-78
2021/09/18 14:21:03;;;;;;;;;;;21.10;90.50;;;;;;4272799;33;44978;-78
2021/09/18 14:23:30;;;;;;;;;;;21.00;90.30;;;;;;4283700;33;43655;-77
2021/09/18 14:25:58;;;;;;;;;;;21.10;90.70;;;;;;4271375;33;43172;-77
2021/09/18 14:28:25;;;;;;;;;;;21.10;90.30;;;;;;4272804;33;42609;-77
2021/09/18 14:30:55;;;;;;;;;;;21.10;90.20;;;;;;4282834;33;42633;-77